CheckWX is a tool to help pilots better visualize weather data.  It is not intended as a substitute for an official pre-flight weather briefing.

07:11:12 UTC

2I0 METAR
Madisonville Regional Airport
Madisonville, Kentucky, USA
Current

16 mins ago

K2I0 200655Z AUTO 19004KT 10SM CLR 22/21 A2963 RMK AO2 T02150205
Observed
Jun-20 @ 06:55 UTC
Wind
  • 190° at 4 KTS
Visibility
10 SM
Flight Rules
VFR
Cloud Levels
  • Clear skies
Temperature
22°C / 72°F
Dewpoint
21°C / 70°F
Humidity
94%
Altimeter
29.63" Hg
Pressure
1003.42 hPa
Previous

36 mins ago

K2I0 200635Z AUTO 21003KT 10SM SCT048 SCT065 22/20 A2964 RMK AO2 T02160202
Observed
Jun-20 @ 06:35 UTC
Wind
  • 210° at 3 KTS
Visibility
10 SM
Flight Rules
VFR
Cloud Levels
  • Scattered at 4,800' AGL
  • Scattered at 6,500' AGL
Temperature
22°C / 72°F
Dewpoint
20°C / 68°F
Humidity
88%
Altimeter
29.64" Hg
Pressure
1003.72 hPa
Previous

56 mins ago

K2I0 200615Z AUTO 22004KT 10SM BKN050 OVC065 22/20 A2965 RMK AO2 T02160203
Observed
Jun-20 @ 06:15 UTC
Wind
  • 220° at 4 KTS
Visibility
10 SM
Flight Rules
VFR
Cloud Levels
  • Broken at 5,000' AGL
  • Overcast at 6,500' AGL
Temperature
22°C / 72°F
Dewpoint
20°C / 68°F
Humidity
88%
Altimeter
29.65" Hg
Pressure
1004.02 hPa